Time;durP1;ratioP1;P1;durP2;ratioP2;P2;SDS_P1;SDS_P2;PMS_P1;PMS_P2;Temp;Humidity;BMP_temperature;BMP_pressure;BME280_temperature;BME280_humidity;BME280_pressure;Samples;Min_cycle;Max_cycle;Signal;HPM_P1;HPM_P2
2022/05/02 00:00:54;;;;;;;1.85;1.70;;;10.80;65.00;;;;;;5111935;27;20035;-58
2022/05/02 00:03:19;;;;;;;2.58;1.80;;;10.80;65.10;;;;;;5128789;28;20505;-59
2022/05/02 00:05:45;;;;;;;2.55;1.88;;;10.70;65.10;;;;;;5117130;28;20036;-59
2022/05/02 00:08:11;;;;;;;2.58;1.80;;;10.70;65.10;;;;;;5126136;28;20035;-59
2022/05/02 00:10:37;;;;;;;2.10;1.90;;;10.70;65.20;;;;;;5124675;28;20024;-63
2022/05/02 00:13:04;;;;;;;3.10;1.83;;;10.70;65.20;;;;;;5101168;28;20031;-62
2022/05/02 00:15:30;;;;;;;3.22;1.88;;;10.60;65.30;;;;;;5130393;28;20037;-62
2022/05/02 00:17:59;;;;;;;1.60;1.50;;;10.60;65.30;;;;;;5130113;28;20035;-62
2022/05/02 00:20:24;;;;;;;3.78;1.73;;;10.60;65.30;;;;;;5104914;28;20118;-62
2022/05/02 00:22:51;;;;;;;2.92;2.08;;;10.60;65.40;;;;;;5091583;28;20447;-63
2022/05/02 00:25:16;;;;;;;1.85;1.65;;;10.60;65.40;;;;;;5124889;28;20080;-62
2022/05/02 00:27:42;;;;;;;2.92;2.10;;;10.60;65.50;;;;;;5110093;28;20449;-62
2022/05/02 00:30:10;;;;;;;3.72;2.28;;;10.60;65.50;;;;;;5102586;28;20080;-62
2022/05/02 00:32:36;;;;;;;2.50;1.75;;;10.50;65.50;;;;;;5132739;27;20030;-62
2022/05/02 00:35:03;;;;;;;3.72;2.45;;;10.50;65.60;;;;;;5133035;27;20505;-62
2022/05/02 00:37:29;;;;;;;2.05;1.42;;;10.50;65.70;;;;;;5119064;27;20037;-62
2022/05/02 00:39:55;;;;;;;3.15;2.13;;;10.50;65.70;;;;;;5131654;27;20397;-62
2022/05/02 00:42:21;;;;;;;2.38;1.85;;;10.40;65.70;;;;;;5125085;27;20031;-62
2022/05/02 00:44:47;;;;;;;3.50;2.17;;;10.40;65.80;;;;;;5132217;27;20382;-62
2022/05/02 00:47:18;;;;;;;3.13;1.73;;;10.40;65.90;;;;;;5134376;27;20023;-62
2022/05/02 00:49:44;;;;;;;2.55;2.33;;;10.40;65.90;;;;;;5123989;27;20114;-59
2022/05/02 00:52:10;;;;;;;3.35;1.83;;;10.30;65.90;;;;;;5125712;27;20111;-59
2022/05/02 00:54:37;;;;;;;3.22;2.17;;;10.30;66.10;;;;;;5115722;27;20023;-59
2022/05/02 00:57:06;;;;;;;3.00;1.98;;;10.30;66.20;;;;;;5113583;28;20034;-59
2022/05/02 00:59:35;;;;;;;3.00;1.88;;;10.30;66.30;;;;;;5120694;27;20031;-59
2022/05/02 01:02:01;;;;;;;4.05;2.13;;;10.20;66.30;;;;;;5113011;28;20028;-59
2022/05/02 01:04:26;;;;;;;1.88;1.67;;;10.20;67.00;;;;;;5095687;28;20035;-59
2022/05/02 01:07:11;;;;;;;2.03;1.48;;;10.20;66.40;;;;;;5117163;27;20035;-59
2022/05/02 01:09:46;;;;;;;2.80;2.50;;;10.20;66.40;;;;;;5123305;27;20484;-59
2022/05/02 01:12:14;;;;;;;2.65;2.00;;;10.20;66.50;;;;;;5133598;27;20023;-62
2022/05/02 01:14:41;;;;;;;1.95;1.77;;;10.10;66.50;;;;;;5131640;27;20023;-62
2022/05/02 01:17:07;;;;;;;3.67;2.00;;;10.10;66.60;;;;;;5133949;27;20027;-62
2022/05/02 01:19:33;;;;;;;2.15;1.92;;;10.10;66.60;;;;;;5125608;27;20043;-62
2022/05/02 01:21:59;;;;;;;3.47;2.70;;;10.10;66.70;;;;;;5119462;27;20038;-62
2022/05/02 01:24:35;;;;;;;4.03;2.25;;;10.10;66.70;;;;;;5126147;27;20039;-62
2022/05/02 01:27:01;;;;;;;2.72;1.65;;;10.00;66.80;;;;;;5133242;27;20023;-62
2022/05/02 01:29:27;;;;;;;3.17;2.60;;;10.00;66.80;;;;;;5124855;27;20028;-62
2022/05/02 01:31:56;;;;;;;2.42;2.17;;;10.00;66.90;;;;;;5116358;27;20036;-62
2022/05/02 01:34:21;;;;;;;2.40;1.80;;;9.90;66.90;;;;;;5102479;27;20023;-62
2022/05/02 01:36:47;;;;;;;2.05;1.88;;;9.90;66.90;;;;;;5117984;27;20031;-62
2022/05/02 01:39:13;;;;;;;2.58;2.38;;;9.90;67.00;;;;;;5114289;27;20040;-62
2022/05/02 01:41:39;;;;;;;2.50;1.80;;;9.90;67.00;;;;;;5114441;27;20032;-62
2022/05/02 01:44:05;;;;;;;2.50;2.30;;;9.90;67.10;;;;;;5121755;27;20195;-62
2022/05/02 01:46:31;;;;;;;4.65;1.77;;;9.80;67.10;;;;;;5132434;27;20027;-62
2022/05/02 01:48:57;;;;;;;1.70;1.60;;;9.80;67.10;;;;;;5129020;27;20041;-62
2022/05/02 01:51:23;;;;;;;2.85;2.10;;;9.80;67.30;;;;;;5118281;27;20055;-62
2022/05/02 01:53:49;;;;;;;4.40;2.53;;;9.80;67.30;;;;;;5123475;27;20119;-62
2022/05/02 01:56:14;;;;;;;6.57;2.33;;;9.80;67.50;;;;;;5123228;27;20046;-62
2022/05/02 01:58:40;;;;;;;4.22;1.90;;;9.80;67.50;;;;;;5111973;27;20059;-62
2022/05/02 02:01:06;;;;;;;3.10;2.38;;;9.70;67.40;;;;;;5111841;27;20454;-62
2022/05/02 02:03:32;;;;;;;2.97;2.55;;;9.70;67.50;;;;;;5122138;27;20040;-62
2022/05/02 02:05:59;;;;;;;2.88;2.08;;;9.70;67.70;;;;;;5112520;28;20032;-63
2022/05/02 02:08:25;;;;;;;2.53;2.33;;;9.70;67.80;;;;;;5119035;27;20035;-62
2022/05/02 02:10:54;;;;;;;3.40;2.17;;;9.70;67.90;;;;;;5128417;27;20019;-62
2022/05/02 02:13:20;;;;;;;3.45;2.25;;;9.70;68.00;;;;;;5111531;28;20421;-62
2022/05/02 02:15:46;;;;;;;2.72;1.88;;;9.60;68.10;;;;;;5130579;27;20107;-62
2022/05/02 02:18:13;;;;;;;5.25;2.72;;;9.60;68.20;;;;;;5096155;28;20067;-62
2022/05/02 02:20:42;;;;;;;2.50;1.80;;;9.60;68.20;;;;;;5111655;28;20039;-62
2022/05/02 02:23:09;;;;;;;4.65;3.38;;;9.60;68.30;;;;;;5092472;28;20043;-58
2022/05/02 02:25:36;;;;;;;3.42;2.78;;;9.60;68.40;;;;;;5111501;28;20093;-58
2022/05/02 02:28:02;;;;;;;3.55;2.45;;;9.50;68.40;;;;;;5111104;28;20019;-58
2022/05/02 02:30:29;;;;;;;3.30;2.35;;;9.50;68.50;;;;;;5110233;27;20105;-58
2022/05/02 02:32:58;;;;;;;3.17;2.15;;;9.50;68.60;;;;;;5126966;27;20508;-58
2022/05/02 02:35:24;;;;;;;2.80;2.40;;;9.50;68.60;;;;;;5130526;27;20355;-59
2022/05/02 02:37:51;;;;;;;5.07;2.25;;;9.40;68.70;;;;;;5111440;27;20055;-62
2022/05/02 02:40:16;;;;;;;4.35;3.00;;;9.40;68.80;;;;;;5090896;28;20504;-62
2022/05/02 02:42:42;;;;;;;3.05;2.60;;;9.40;68.90;;;;;;5106131;27;20027;-62
2022/05/02 02:45:09;;;;;;;3.15;2.53;;;9.40;68.90;;;;;;5110043;27;20154;-58
2022/05/02 02:47:34;;;;;;;4.68;2.33;;;9.40;69.10;;;;;;5119149;27;20031;-58
2022/05/02 02:50:00;;;;;;;2.55;2.35;;;9.30;69.00;;;;;;5113278;27;20024;-58
2022/05/02 02:52:26;;;;;;;3.30;2.70;;;9.30;69.00;;;;;;5098962;27;20043;-59
2022/05/02 02:54:51;;;;;;;2.17;1.98;;;9.30;69.10;;;;;;5127766;27;20066;-58
2022/05/02 02:57:17;;;;;;;3.05;2.58;;;9.30;69.10;;;;;;5102412;28;20043;-58
2022/05/02 02:59:43;;;;;;;10.75;2.67;;;9.20;69.10;;;;;;5110265;28;20031;-59
2022/05/02 03:02:09;;;;;;;2.55;2.03;;;9.20;69.10;;;;;;5110169;28;20030;-59
2022/05/02 03:07:21;;;;;;;3.85;2.17;;;9.20;69.20;;;;;;5126675;27;20084;-59
2022/05/02 03:09:47;;;;;;;4.07;2.50;;;9.10;69.20;;;;;;5128805;27;20050;-62
2022/05/02 03:12:13;;;;;;;3.72;2.88;;;9.10;69.20;;;;;;5127929;27;20489;-62
2022/05/02 03:14:39;;;;;;;4.65;2.70;;;9.10;69.30;;;;;;5113193;27;20074;-59
2022/05/02 03:17:05;;;;;;;3.33;3.03;;;9.10;69.30;;;;;;5110980;27;20067;-59
2022/05/02 03:19:30;;;;;;;5.65;2.53;;;9.00;69.30;;;;;;5105656;27;20059;-59
2022/05/02 03:21:56;;;;;;;5.00;2.17;;;9.00;69.40;;;;;;5126778;27;20066;-59
2022/05/02 03:24:22;;;;;;;3.53;2.88;;;9.00;69.40;;;;;;5111730;27;20067;-62
2022/05/02 03:26:47;;;;;;;2.63;1.90;;;9.00;69.50;;;;;;5128647;27;20031;-62
2022/05/02 03:29:13;;;;;;;3.40;2.17;;;8.90;69.40;;;;;;5124705;27;20027;-62
2022/05/02 03:31:39;;;;;;;3.53;3.22;;;8.90;69.50;;;;;;5108583;28;20036;-59
2022/05/02 03:34:05;;;;;;;4.57;2.10;;;8.90;69.50;;;;;;5092263;28;20071;-59
2022/05/02 03:36:31;;;;;;;4.30;3.00;;;8.90;69.60;;;;;;5113061;27;20073;-58
2022/05/02 03:38:57;;;;;;;5.05;2.97;;;8.90;69.60;;;;;;5095961;27;20031;-58
2022/05/02 03:41:23;;;;;;;4.50;2.80;;;8.80;69.70;;;;;;5112614;27;20033;-59
2022/05/02 03:43:48;;;;;;;3.88;3.13;;;8.80;69.70;;;;;;5109691;28;20547;-59
2022/05/02 03:46:14;;;;;;;4.10;1.77;;;8.80;69.70;;;;;;5110712;28;20455;-58
2022/05/02 03:48:40;;;;;;;2.85;2.42;;;8.80;69.70;;;;;;5109853;28;20031;-62
2022/05/02 03:51:05;;;;;;;4.28;3.17;;;8.70;69.70;;;;;;5109481;27;20099;-58
2022/05/02 03:53:31;;;;;;;4.22;2.13;;;8.70;69.80;;;;;;5092415;27;20047;-62
2022/05/02 03:55:57;;;;;;;4.50;2.70;;;8.70;69.80;;;;;;5115305;27;20023;-62
2022/05/02 03:58:23;;;;;;;3.25;2.63;;;8.70;70.00;;;;;;5109922;28;20107;-59
2022/05/02 04:00:48;;;;;;;3.25;2.38;;;8.60;70.00;;;;;;5123201;27;20116;-62
2022/05/02 04:03:14;;;;;;;2.58;2.38;;;8.60;70.10;;;;;;5131140;28;20039;-62
2022/05/02 04:05:40;;;;;;;5.65;2.60;;;8.60;70.20;;;;;;5131270;27;20106;-62
2022/05/02 04:08:06;;;;;;;4.75;2.85;;;8.60;70.20;;;;;;5094962;28;20027;-59
2022/05/02 04:10:31;;;;;;;4.60;3.03;;;8.60;70.30;;;;;;5131009;28;20338;-59
2022/05/02 04:12:57;;;;;;;2.78;1.90;;;8.50;70.30;;;;;;5126573;28;20027;-59
2022/05/02 04:15:23;;;;;;;2.63;2.40;;;8.50;70.40;;;;;;5110479;28;20024;-58
2022/05/02 04:17:48;;;;;;;3.25;2.45;;;8.50;70.40;;;;;;5110467;28;20069;-59
2022/05/02 04:20:14;;;;;;;3.95;3.03;;;8.50;70.50;;;;;;5103097;28;20081;-58
2022/05/02 04:22:41;;;;;;;2.78;2.55;;;8.50;70.60;;;;;;5107990;28;20024;-58
2022/05/02 04:25:07;;;;;;;3.05;2.55;;;8.40;70.60;;;;;;5109068;28;20055;-59
2022/05/02 04:27:33;;;;;;;6.57;3.38;;;8.40;70.60;;;;;;5110022;28;20028;-62
2022/05/02 04:29:59;;;;;;;4.72;2.80;;;8.40;70.70;;;;;;5110157;28;20015;-59
2022/05/02 04:32:25;;;;;;;3.05;2.75;;;8.40;70.80;;;;;;5113304;28;20019;-58
2022/05/02 04:34:54;;;;;;;3.28;2.35;;;8.40;70.80;;;;;;5112299;28;20027;-62
2022/05/02 04:37:20;;;;;;;4.10;2.75;;;8.40;70.90;;;;;;5130849;28;20063;-58
2022/05/02 04:39:45;;;;;;;3.42;2.92;;;8.40;71.00;;;;;;5130419;28;20050;-62
2022/05/02 04:42:11;;;;;;;3.05;2.58;;;8.40;71.10;;;;;;5124249;28;20104;-62
2022/05/02 04:44:36;;;;;;;3.03;2.30;;;8.40;71.20;;;;;;5091175;28;20093;-62
2022/05/02 04:47:02;;;;;;;3.05;2.08;;;8.40;71.30;;;;;;5092235;28;20024;-62
2022/05/02 04:49:28;;;;;;;3.55;2.97;;;8.40;71.40;;;;;;5092084;28;20027;-62
2022/05/02 04:51:54;;;;;;;4.13;2.38;;;8.40;71.50;;;;;;5109559;28;20535;-62
2022/05/02 04:54:19;;;;;;;7.18;2.35;;;8.40;71.50;;;;;;5110379;28;20401;-62
2022/05/02 04:56:45;;;;;;;2.90;2.65;;;8.50;71.70;;;;;;5110049;28;20032;-62
2022/05/02 04:59:11;;;;;;;3.80;2.55;;;8.50;71.80;;;;;;5091229;28;20394;-62
2022/05/02 05:01:36;;;;;;;5.28;2.38;;;8.50;71.90;;;;;;5109322;28;20527;-58
2022/05/02 05:04:02;;;;;;;3.47;2.38;;;8.50;72.00;;;;;;5109411;28;20035;-59
2022/05/02 05:06:28;;;;;;;2.92;2.63;;;8.50;72.00;;;;;;5092009;28;20081;-59
2022/05/02 05:08:54;;;;;;;4.28;2.72;;;8.60;72.10;;;;;;5109227;28;20073;-59
2022/05/02 05:11:38;;;;;;;2.65;2.45;;;8.70;72.20;;;;;;5109147;28;20035;-59
2022/05/02 05:17:02;;;;;;;4.85;2.65;;;8.80;72.30;;;;;;5109784;28;20078;-62
2022/05/02 05:19:52;;;;;;;3.22;2.80;;;8.80;72.30;;;;;;5127261;27;20034;-62
2022/05/02 05:22:31;;;;;;;3.20;2.90;;;8.80;72.40;;;;;;5115149;27;20429;-62
2022/05/02 05:25:18;;;;;;;3.08;2.53;;;8.90;72.40;;;;;;5105196;28;20031;-62
2022/05/02 05:27:51;;;;;;;2.33;1.83;;;8.90;72.30;;;;;;5112934;28;20028;-62
2022/05/02 05:30:22;;;;;;;4.50;3.33;;;9.00;72.30;;;;;;5113625;28;20016;-62
2022/05/02 05:33:16;;;;;;;4.03;2.53;;;9.10;72.30;;;;;;5116595;27;20457;-63
2022/05/02 05:35:53;;;;;;;3.15;2.65;;;9.20;72.30;;;;;;5122293;27;20024;-62
2022/05/02 05:38:48;;;;;;;2.33;1.80;;;9.20;72.20;;;;;;5112748;28;20039;-62
2022/05/02 05:41:53;;;;;;;4.78;2.15;;;9.30;72.20;;;;;;5112224;28;20020;-62
2022/05/02 05:44:27;;;;;;;6.32;3.08;;;9.40;72.10;;;;;;5111271;28;20054;-63
2022/05/02 05:46:59;;;;;;;2.35;2.13;;;9.40;72.10;;;;;;5111807;28;20050;-62
2022/05/02 05:50:15;;;;;;;3.35;2.55;;;9.50;72.00;;;;;;5112216;28;20024;-63
2022/05/02 05:53:04;;;;;;;3.22;2.67;;;9.60;71.90;;;;;;5047818;28;20033;-63
2022/05/02 05:55:57;;;;;;;4.45;2.75;;;9.60;71.90;;;;;;5048487;28;20036;-63
2022/05/02 05:58:53;;;;;;;4.10;2.60;;;9.70;71.80;;;;;;5083129;28;20108;-62
2022/05/02 06:01:33;;;;;;;2.70;1.88;;;9.80;71.60;;;;;;5091426;28;20405;-63
2022/05/02 06:04:07;;;;;;;3.22;2.55;;;9.90;71.60;;;;;;5113353;27;20052;-63
2022/05/02 06:06:35;;;;;;;3.75;2.58;;;10.00;71.50;;;;;;5111725;28;20027;-62
2022/05/02 06:09:02;;;;;;;2.35;2.05;;;10.10;71.40;;;;;;5092457;28;20027;-63
2022/05/02 06:11:29;;;;;;;2.97;1.65;;;10.10;71.20;;;;;;5111633;28;20124;-62
2022/05/02 06:13:58;;;;;;;2.20;1.63;;;10.20;71.20;;;;;;5111260;28;20031;-62
2022/05/02 06:19:27;;;;;;;2.55;2.30;;;10.30;71.00;;;;;;5108443;27;20165;-63
2022/05/02 06:21:56;;;;;;;4.22;2.30;;;10.40;70.90;;;;;;5110641;28;20047;-62
2022/05/02 06:24:28;;;;;;;3.00;1.67;;;10.50;70.70;;;;;;5122793;27;20132;-62
2022/05/02 06:26:55;;;;;;;1.88;1.77;;;10.60;70.50;;;;;;5111324;28;20028;-62
2022/05/02 06:29:23;;;;;;;5.40;2.03;;;10.60;70.50;;;;;;5115266;27;20446;-62
2022/05/02 06:31:52;;;;;;;3.05;1.92;;;10.70;70.30;;;;;;5114286;27;20016;-62
2022/05/02 06:34:25;;;;;;;2.38;2.10;;;10.80;70.20;;;;;;5092126;28;20474;-62
2022/05/02 06:37:08;;;;;;;4.28;1.90;;;10.80;70.00;;;;;;5108269;28;20024;-62
2022/05/02 06:39:49;;;;;;;1.83;1.73;;;10.90;69.70;;;;;;5110145;27;20027;-59
2022/05/02 06:42:36;;;;;;;2.08;1.65;;;11.00;69.60;;;;;;5108405;28;20031;-59
2022/05/02 06:45:13;;;;;;;3.05;2.28;;;11.10;69.50;;;;;;5108922;28;20354;-58
2022/05/02 06:47:49;;;;;;;3.00;1.58;;;11.10;69.40;;;;;;5109951;28;20039;-58
2022/05/02 06:50:23;;;;;;;4.30;2.30;;;11.20;69.20;;;;;;5089460;28;20020;-62
2022/05/02 06:53:20;;;;;;;2.10;1.75;;;11.30;69.00;;;;;;5079311;27;20027;-59
2022/05/02 06:56:03;;;;;;;1.35;1.25;;;11.40;68.90;;;;;;5126890;27;20030;-59
2022/05/02 06:59:08;;;;;;;2.40;2.20;;;11.40;68.80;;;;;;5127791;27;20465;-62
2022/05/02 07:01:57;;;;;;;2.20;1.50;;;11.50;68.50;;;;;;5125567;27;20362;-62
2022/05/02 07:04:33;;;;;;;1.63;1.45;;;11.60;68.30;;;;;;5128216;27;20027;-62
2022/05/02 07:07:11;;;;;;;2.17;1.58;;;11.70;68.10;;;;;;5120331;27;20089;-62
2022/05/02 07:09:41;;;;;;;3.30;1.75;;;11.80;67.90;;;;;;5128615;27;20043;-62
2022/05/02 07:12:25;;;;;;;5.38;2.08;;;11.90;67.70;;;;;;5122574;27;20666;-62
2022/05/02 07:15:05;;;;;;;1.88;1.65;;;12.00;67.40;;;;;;5101090;27;20109;-58
2022/05/02 07:17:42;;;;;;;3.08;1.98;;;12.10;67.10;;;;;;5123297;27;20095;-58
2022/05/02 07:20:23;;;;;;;2.55;1.80;;;12.10;66.80;;;;;;5113258;27;20073;-60
2022/05/02 07:23:12;;;;;;;2.72;2.03;;;12.20;66.60;;;;;;5104262;27;20034;-60
2022/05/02 07:25:45;;;;;;;7.43;2.95;;;12.20;66.40;;;;;;5114169;27;20424;-61
2022/05/02 07:28:32;;;;;;;3.72;1.95;;;12.30;65.80;;;;;;5125177;27;20025;-60
2022/05/02 07:30:58;;;;;;;3.13;2.17;;;12.40;65.60;;;;;;5097950;27;20046;-61
2022/05/02 07:33:31;;;;;;;2.60;2.40;;;12.40;64.60;;;;;;5109753;27;20123;-63
2022/05/02 07:36:01;;;;;;;6.15;2.00;;;12.50;64.50;;;;;;5125792;27;20050;-60
2022/05/02 07:38:36;;;;;;;2.20;2.00;;;12.60;64.60;;;;;;5126175;27;20393;-60
2022/05/02 07:44:07;;;;;;;4.63;2.03;;;12.70;63.90;;;;;;5125321;27;20104;-61
2022/05/02 07:46:38;;;;;;;1.80;1.70;;;12.80;63.70;;;;;;5124834;27;20027;-58
2022/05/02 07:49:07;;;;;;;2.22;1.65;;;12.90;64.20;;;;;;5119653;27;20030;-58
2022/05/02 07:51:46;;;;;;;3.80;2.85;;;13.00;63.20;;;;;;5127253;27;20113;-58
2022/05/02 07:54:19;;;;;;;3.30;2.00;;;13.10;62.80;;;;;;5121871;27;20487;-61
2022/05/02 07:56:47;;;;;;;3.22;2.10;;;13.20;62.90;;;;;;5122194;27;20051;-61
2022/05/02 07:59:15;;;;;;;3.72;2.63;;;13.20;62.60;;;;;;5119453;27;20075;-61
2022/05/02 08:01:41;;;;;;;1.95;1.52;;;13.30;62.00;;;;;;5120974;27;20036;-61
2022/05/02 08:04:12;;;;;;;2.35;1.60;;;13.40;61.80;;;;;;5104612;28;20092;-61
2022/05/02 08:06:45;;;;;;;3.13;1.75;;;13.40;61.60;;;;;;5109176;28;20587;-60
2022/05/02 08:09:33;;;;;;;2.40;2.03;;;13.50;61.10;;;;;;5109641;28;20024;-63
2022/05/02 08:12:07;;;;;;;2.50;2.17;;;13.50;60.90;;;;;;5116500;28;20076;-59
2022/05/02 08:14:46;;;;;;;2.83;1.85;;;13.60;60.90;;;;;;5099394;28;20122;-60
2022/05/02 08:17:19;;;;;;;2.72;2.00;;;13.60;60.60;;;;;;5083470;28;20024;-60
2022/05/02 08:19:58;;;;;;;4.30;2.22;;;13.80;60.30;;;;;;5095328;28;20031;-60
2022/05/02 08:29:05;;;;;;;2.60;1.95;;;14.00;59.60;;;;;;5082388;28;20073;-62
2022/05/02 08:32:00;;;;;;;2.58;2.03;;;14.10;59.30;;;;;;5085468;28;20397;-62
2022/05/02 08:34:32;;;;;;;3.90;2.00;;;14.20;59.30;;;;;;5103407;28;20637;-61
2022/05/02 08:37:17;;;;;;;2.15;1.88;;;14.20;58.70;;;;;;5101816;28;20640;-60
2022/05/02 08:40:04;;;;;;;5.20;2.38;;;14.30;57.60;;;;;;5076018;28;20047;-58
2022/05/02 08:43:07;;;;;;;1.95;1.38;;;14.40;58.00;;;;;;5101725;28;20584;-58
2022/05/02 08:45:56;;;;;;;7.38;1.95;;;14.40;58.00;;;;;;5092718;28;20222;-59
2022/05/02 08:48:21;;;;;;;2.10;1.90;;;14.50;57.80;;;;;;5098621;28;20059;-60
2022/05/02 08:51:09;;;;;;;3.42;2.08;;;14.70;58.00;;;;;;5097945;28;20067;-57
2022/05/02 08:53:43;;;;;;;10.85;1.77;;;14.70;57.80;;;;;;5102487;28;20044;-60
2022/05/02 08:56:24;;;;;;;2.30;2.03;;;14.90;57.40;;;;;;5102554;28;20070;-62
2022/05/02 08:59:23;;;;;;;2.35;2.03;;;15.00;57.10;;;;;;5103061;27;20045;-63
2022/05/02 09:02:10;;;;;;;4.78;2.65;;;15.10;56.20;;;;;;5106146;27;20458;-63
2022/05/02 09:05:13;;;;;;;3.22;2.05;;;15.20;55.80;;;;;;5114891;27;20028;-63
2022/05/02 09:07:44;;;;;;;2.83;1.88;;;15.20;55.40;;;;;;5090862;27;20035;-63
2022/05/02 09:10:20;;;;;;;4.53;2.43;;;15.30;55.50;;;;;;5094420;27;20077;-63
2022/05/02 09:13:24;;;;;;;3.15;1.70;;;15.40;55.50;;;;;;5089992;28;20391;-63
2022/05/02 09:16:27;;;;;;;6.68;2.10;;;15.50;55.40;;;;;;5105904;27;20710;-61
2022/05/02 09:18:58;;;;;;;;;;;15.60;55.10;;;;;;5103692;27;20028;-60
2022/05/02 09:21:37;;;;;;;4.72;1.42;;;15.70;54.90;;;;;;5112864;27;19946;-61
2022/05/02 09:24:24;;;;;;;2.00;1.77;;;15.70;55.10;;;;;;5079031;28;20020;-60
2022/05/02 09:27:05;;;;;;;4.38;2.58;;;15.90;54.70;;;;;;5085904;28;20097;-62
2022/05/02 09:30:04;;;;;;;3.22;1.92;;;15.90;53.20;;;;;;5107603;27;20030;-63
2022/05/02 09:32:46;;;;;;;6.30;2.08;;;16.00;53.30;;;;;;5110952;27;20038;-63
2022/05/02 09:35:18;;;;;;;2.15;1.90;;;16.00;53.10;;;;;;5103099;28;20023;-62
2022/05/02 09:38:03;;;;;;;;;;;16.20;53.30;;;;;;5112048;27;20491;-63
2022/05/02 09:40:41;;;;;;;2.95;2.53;;;16.30;53.10;;;;;;5103196;27;20022;-63
2022/05/02 09:49:37;;;;;;;2.92;1.95;;;16.60;51.50;;;;;;5109461;28;20166;-61
2022/05/02 09:52:09;;;;;;;2.47;2.15;;;16.70;50.90;;;;;;5102425;28;20386;-63
2022/05/02 09:57:48;;;;;;;2.70;2.25;;;16.90;50.50;;;;;;5099477;27;20054;-63
2022/05/02 10:03:20;;;;;;;2.13;1.92;;;17.10;48.80;;;;;;5105881;27;20046;-63
2022/05/02 10:05:53;;;;;;;2.00;1.67;;;17.20;49.00;;;;;;5101024;28;20134;-60
2022/05/02 10:08:36;;;;;;;2.75;1.88;;;17.30;48.90;;;;;;5111120;28;20023;-59
2022/05/02 10:11:16;;;;;;;1.15;1.10;;;17.30;48.40;;;;;;5103612;27;20168;-58
2022/05/02 10:14:03;;;;;;;2.72;1.38;;;17.30;49.00;;;;;;5098945;28;20024;-58
2022/05/02 10:16:57;;;;;;;2.40;1.70;;;17.40;49.20;;;;;;5103410;28;20031;-61
2022/05/02 10:19:41;;;;;;;2.70;1.95;;;17.50;48.60;;;;;;5106027;28;20044;-61
2022/05/02 10:22:16;;;;;;;3.08;2.08;;;17.70;48.00;;;;;;5099188;27;20036;-61
2022/05/02 10:24:41;;;;;;;2.53;1.63;;;17.80;46.90;;;;;;5103588;27;20486;-59
2022/05/02 10:27:41;;;;;;;2.58;1.98;;;17.90;47.30;;;;;;5108766;27;20062;-60
2022/05/02 10:30:12;;;;;;;1.80;1.60;;;17.90;46.70;;;;;;5115529;27;20726;-59
2022/05/02 10:32:56;;;;;;;3.17;1.58;;;17.90;46.80;;;;;;5105192;27;20028;-61
2022/05/02 10:35:25;;;;;;;1.30;1.00;;;18.00;46.90;;;;;;5101991;27;20039;-63
2022/05/02 10:37:56;;;;;;;3.40;1.90;;;18.10;46.50;;;;;;5097996;28;20027;-63
2022/05/02 10:40:41;;;;;;;3.00;2.33;;;18.30;45.60;;;;;;5100764;28;20032;-63
2022/05/02 10:43:09;;;;;;;1.38;1.23;;;18.40;45.90;;;;;;5100268;28;20036;-63
2022/05/02 10:45:37;;;;;;;3.10;1.80;;;18.50;46.20;;;;;;5108580;28;20035;-63
2022/05/02 10:48:27;;;;;;;2.10;1.40;;;18.60;45.40;;;;;;5117318;27;20031;-63
2022/05/02 10:51:13;;;;;;;1.92;1.83;;;18.70;45.40;;;;;;5099651;28;20024;-63
2022/05/02 10:53:56;;;;;;;2.28;1.90;;;18.60;44.10;;;;;;5090992;28;20495;-59
2022/05/02 10:56:53;;;;;;;1.95;1.70;;;18.60;44.40;;;;;;5099742;28;20027;-59
2022/05/02 10:59:22;;;;;;;3.50;2.10;;;18.60;44.80;;;;;;5102149;28;20168;-58
2022/05/02 11:02:18;;;;;;;4.35;1.90;;;18.50;43.90;;;;;;5104088;28;20111;-59
2022/05/02 11:04:58;;;;;;;2.53;2.17;;;18.50;43.70;;;;;;5106606;28;20087;-59
2022/05/02 11:07:45;;;;;;;2.63;2.20;;;18.60;44.10;;;;;;5108755;28;20019;-59
2022/05/02 11:10:13;;;;;;;4.88;2.42;;;18.70;44.20;;;;;;5104334;27;20413;-59
2022/05/02 11:13:07;;;;;;;2.05;1.85;;;18.80;44.00;;;;;;5098192;28;20382;-59
2022/05/02 11:15:36;;;;;;;2.88;2.05;;;18.90;44.40;;;;;;5098127;28;20028;-64
2022/05/02 11:20:41;;;;;;;2.58;1.83;;;19.10;43.90;;;;;;5095243;28;20382;-64
2022/05/02 11:21:08;;;;;;;1.40;1.30;;;19.20;43.40;;;;;;5087763;28;20466;-60
2022/05/02 11:23:45;;;;;;;2.15;1.50;;;19.20;43.30;;;;;;5104877;28;20496;-59
2022/05/02 11:26:44;;;;;;;2.20;1.73;;;19.20;43.00;;;;;;5105896;27;20065;-59
2022/05/02 11:29:18;;;;;;;2.28;2.08;;;19.30;42.80;;;;;;5091384;27;20028;-59
2022/05/02 11:31:54;;;;;;;2.13;1.52;;;19.40;43.30;;;;;;5121345;27;20027;-60
2022/05/02 11:34:28;;;;;;;3.55;1.92;;;19.60;43.00;;;;;;5105717;28;20027;-59
2022/05/02 11:36:57;;;;;;;2.42;2.05;;;19.80;43.10;;;;;;5093295;27;20043;-59
2022/05/02 11:39:53;;;;;;;2.95;1.80;;;19.80;42.40;;;;;;5094160;27;20043;-60
2022/05/02 11:42:22;;;;;;;2.72;1.77;;;19.60;42.60;;;;;;5107049;27;20055;-64
2022/05/02 11:45:14;;;;;;;1.52;1.38;;;19.60;43.00;;;;;;5114084;27;20043;-64
2022/05/02 11:48:13;;;;;;;1.63;1.38;;;19.70;43.00;;;;;;5099792;28;20056;-60
2022/05/02 11:50:49;;;;;;;1.70;1.08;;;19.80;43.00;;;;;;5066090;28;20039;-64
2022/05/02 11:53:16;;;;;;;2.67;2.10;;;20.10;43.10;;;;;;5099334;28;20031;-64
2022/05/02 11:55:46;;;;;;;2.58;2.05;;;20.30;42.10;;;;;;5098468;27;20120;-64
2022/05/02 11:58:24;;;;;;;1.70;1.58;;;20.40;42.10;;;;;;5101984;28;20016;-59
2022/05/02 12:00:57;;;;;;;2.17;1.70;;;20.50;42.20;;;;;;5124161;27;20031;-60
2022/05/02 12:03:25;;;;;;;2.67;2.47;;;20.50;41.30;;;;;;5114200;27;20031;-60
2022/05/02 12:05:55;;;;;;;2.10;1.90;;;20.40;41.00;;;;;;5109615;28;20024;-60
2022/05/02 12:08:34;;;;;;;2.30;1.67;;;20.50;40.90;;;;;;5107262;27;20030;-60
2022/05/02 12:11:11;;;;;;;5.40;2.53;;;20.60;40.50;;;;;;5109972;28;20015;-60
2022/05/02 12:13:47;;;;;;;2.17;1.75;;;20.70;40.10;;;;;;5106102;28;20470;-65
2022/05/02 12:16:14;;;;;;;2.33;1.90;;;20.90;40.40;;;;;;5109992;28;20035;-65
2022/05/02 12:18:50;;;;;;;3.53;2.70;;;21.00;39.80;;;;;;5087646;28;20068;-65
2022/05/02 12:21:24;;;;;;;2.95;2.20;;;21.10;39.80;;;;;;5105821;28;20123;-65
2022/05/02 12:23:52;;;;;;;3.42;1.95;;;21.20;39.60;;;;;;5101257;28;20509;-65
2022/05/02 12:26:23;;;;;;;1.48;1.38;;;21.30;39.40;;;;;;5095460;28;20019;-66
2022/05/02 12:28:51;;;;;;;2.05;1.65;;;21.50;40.10;;;;;;5131498;27;20038;-65
2022/05/02 12:31:18;;;;;;;2.17;1.88;;;21.70;40.10;;;;;;5113048;27;20131;-65
2022/05/02 12:33:48;;;;;;;2.22;1.75;;;21.90;40.40;;;;;;5122806;27;20058;-65
2022/05/02 12:36:19;;;;;;;1.90;1.77;;;22.10;39.10;;;;;;5101107;27;20459;-65
2022/05/02 12:39:06;;;;;;;2.53;1.67;;;21.90;39.20;;;;;;5084107;28;20028;-65
2022/05/02 12:41:47;;;;;;;2.38;1.90;;;21.70;39.40;;;;;;5093787;28;20032;-66
2022/05/02 12:44:14;;;;;;;2.30;1.90;;;21.40;39.20;;;;;;5111003;28;20435;-65
2022/05/02 12:46:45;;;;;;;2.30;2.10;;;21.20;39.60;;;;;;5107330;28;20470;-65
2022/05/02 12:49:24;;;;;;;1.70;1.60;;;21.10;39.70;;;;;;5102841;27;20047;-65
2022/05/02 12:51:53;;;;;;;2.58;1.83;;;20.90;40.00;;;;;;5090117;28;20027;-65
2022/05/02 12:54:21;;;;;;;2.67;2.17;;;20.80;40.00;;;;;;5098927;28;20028;-65
2022/05/02 13:02:43;;;;;;;3.13;2.00;;;20.50;39.60;;;;;;5101298;28;20600;-65
2022/05/02 13:05:17;;;;;;;2.15;1.88;;;20.50;39.30;;;;;;5076127;28;20560;-65
2022/05/02 13:07:54;;;;;;;1.98;1.73;;;20.80;38.70;;;;;;5129941;27;20164;-65
2022/05/02 13:10:25;;;;;;;1.52;1.08;;;21.10;38.50;;;;;;5100546;27;20023;-62
2022/05/02 13:13:00;;;;;;;4.07;2.30;;;21.50;38.70;;;;;;5106568;27;20080;-62
2022/05/02 13:15:36;;;;;;;1.98;1.58;;;21.80;37.90;;;;;;5085553;28;20442;-62
2022/05/02 13:18:05;;;;;;;3.42;1.85;;;22.00;37.90;;;;;;5106878;27;20474;-62
2022/05/02 13:20:32;;;;;;;3.13;1.95;;;22.20;37.70;;;;;;5104531;28;20027;-62
2022/05/02 13:23:07;;;;;;;1.45;1.35;;;22.30;36.40;;;;;;5090298;28;20040;-62
2022/05/02 13:26:05;;;;;;;3.65;2.40;;;22.30;36.90;;;;;;5106146;28;20041;-62
2022/05/02 13:29:10;;;;;;;2.50;2.30;;;22.30;35.40;;;;;;5106306;28;20039;-62
2022/05/02 13:31:47;;;;;;;2.53;1.70;;;22.30;36.80;;;;;;5065326;28;20450;-62
2022/05/02 13:34:36;;;;;;;2.85;2.08;;;22.50;37.30;;;;;;5101623;27;20063;-62
2022/05/02 13:37:22;;;;;;;3.47;2.15;;;22.70;37.50;;;;;;5101126;28;20074;-62
2022/05/02 13:40:13;;;;;;;4.13;2.45;;;23.00;36.20;;;;;;5099886;27;20227;-62
2022/05/02 13:42:44;;;;;;;4.18;2.30;;;23.00;35.70;;;;;;5104883;28;20047;-62
2022/05/02 13:45:41;;;;;;;2.00;1.90;;;23.10;35.40;;;;;;5108064;28;20115;-60
2022/05/02 13:48:30;;;;;;;1.60;1.50;;;23.10;35.40;;;;;;5106142;28;20019;-60
2022/05/02 13:51:33;;;;;;;2.47;1.90;;;22.90;35.70;;;;;;5098115;27;20043;-60
2022/05/02 13:54:04;;;;;;;1.88;1.52;;;22.60;36.20;;;;;;5084161;28;20813;-60
2022/05/02 13:56:36;;;;;;;2.22;1.75;;;22.30;36.70;;;;;;5111535;28;20027;-60
2022/05/02 13:59:27;;;;;;;1.95;1.73;;;22.10;37.20;;;;;;5112665;27;20043;-60
2022/05/02 14:01:59;;;;;;;1.63;1.35;;;22.00;37.20;;;;;;5100353;28;20028;-60